Time;durP1;ratioP1;P1;durP2;ratioP2;P2;SDS_P1;SDS_P2;PMS_P1;PMS_P2;Temp;Humidity;BMP_temperature;BMP_pressure;BME280_temperature;BME280_humidity;BME280_pressure;Samples;Min_cycle;Max_cycle;Signal;HPM_P1;HPM_P2
2022/10/27 00:00:26;;;;;;;;;;;20.20;71.90;;;;;;5090730;28;885;-66
2022/10/27 00:02:51;;;;;;;;;;;20.20;71.90;;;;;;5091991;28;799;-66
2022/10/27 00:05:16;;;;;;;;;;;20.20;71.90;;;;;;5090933;28;1909;-66
2022/10/27 00:07:42;;;;;;;;;;;20.20;71.90;;;;;;5091413;28;1203;-66
2022/10/27 00:10:07;;;;;;;;;;;20.20;71.90;;;;;;5095123;28;788;-66
2022/10/27 00:12:33;;;;;;;;;;;20.20;71.90;;;;;;5075934;28;1299;-65
2022/10/27 00:14:58;;;;;;;;;;;20.20;71.90;;;;;;5090773;28;1018;-66
2022/10/27 00:17:24;;;;;;;;;;;20.20;71.90;;;;;;5090821;28;1379;-66
2022/10/27 00:19:49;;;;;;;;;;;20.20;71.90;;;;;;5090720;28;813;-66
2022/10/27 00:22:14;;;;;;;;;;;20.20;71.90;;;;;;5090612;28;826;-65
2022/10/27 00:24:40;;;;;;;;;;;20.20;71.90;;;;;;5093034;28;1968;-65
2022/10/27 00:27:07;;;;;;;;;;;20.20;71.90;;;;;;5091728;28;954;-65
2022/10/27 00:29:32;;;;;;;;;;;20.20;71.90;;;;;;5091386;28;1380;-65
2022/10/27 00:31:58;;;;;;;;;;;20.20;71.90;;;;;;5092380;28;1342;-66
2022/10/27 00:34:23;;;;;;;;;;;20.20;71.90;;;;;;5089804;28;1018;-66
2022/10/27 00:36:48;;;;;;;;;;;20.20;71.90;;;;;;5090628;28;1419;-66
2022/10/27 00:39:14;;;;;;;;;;;20.20;71.90;;;;;;5091571;28;1363;-66
2022/10/27 00:41:40;;;;;;;;;;;20.20;71.90;;;;;;5090541;28;1005;-66
2022/10/27 00:44:24;;;;;;;;;;;20.20;71.90;;;;;;5072183;28;1045;-66
2022/10/27 00:46:50;;;;;;;;;;;20.20;71.90;;;;;;5090161;28;1897;-66
2022/10/27 00:49:16;;;;;;;;;;;20.20;71.90;;;;;;5091346;28;1250;-66
2022/10/27 00:51:44;;;;;;;;;;;20.20;71.90;;;;;;5071137;28;976;-66
2022/10/27 00:54:09;;;;;;;;;;;20.20;71.90;;;;;;5072591;28;1436;-66
2022/10/27 00:56:35;;;;;;;;;;;20.20;71.90;;;;;;5075503;28;1148;-66
2022/10/27 00:59:00;;;;;;;;;;;20.20;71.90;;;;;;5089931;28;1276;-66
2022/10/27 01:01:26;;;;;;;;;;;20.20;71.90;;;;;;5073334;28;975;-66
2022/10/27 01:03:51;;;;;;;;;;;20.20;71.90;;;;;;5093367;28;840;-67
2022/10/27 01:06:17;;;;;;;;;;;20.20;71.90;;;;;;5075887;28;1978;-67
2022/10/27 01:08:42;;;;;;;;;;;20.20;71.90;;;;;;5094341;28;1359;-67
2022/10/27 01:11:08;;;;;;;;;;;20.20;71.90;;;;;;5075275;28;863;-67
2022/10/27 01:13:33;;;;;;;;;;;20.20;71.90;;;;;;5095021;28;1308;-67
2022/10/27 01:15:58;;;;;;;;;;;20.20;71.90;;;;;;5078969;28;998;-67
2022/10/27 01:18:42;;;;;;;;;;;20.20;71.90;;;;;;5093423;28;1191;-67
2022/10/27 01:21:26;;;;;;;;;;;20.20;71.90;;;;;;5092753;28;847;-67
2022/10/27 01:24:10;;;;;;;;;;;20.20;71.90;;;;;;5093328;28;848;-67
2022/10/27 01:26:47;;;;;;;;;;;20.20;71.90;;;;;;5078337;28;1966;-67
2022/10/27 01:29:15;;;;;;;;;;;20.20;71.90;;;;;;5075208;28;1356;-67
2022/10/27 01:31:51;;;;;;;;;;;20.20;71.90;;;;;;5096083;28;1575;-66
2022/10/27 01:34:28;;;;;;;;;;;20.20;71.90;;;;;;5075710;28;807;-67
2022/10/27 01:36:54;;;;;;;;;;;20.20;71.90;;;;;;5075495;28;844;-65
2022/10/27 01:39:28;;;;;;;;;;;20.20;71.90;;;;;;5076380;28;1259;-66
2022/10/27 01:41:55;;;;;;;;;;;20.20;72.20;;;;;;5094179;28;1037;-66
2022/10/27 01:44:21;;;;;;;;;;;20.20;72.00;;;;;;5074319;28;907;-66
2022/10/27 01:46:47;;;;;;;;;;;20.20;72.00;;;;;;5093018;28;1898;-66
2022/10/27 01:49:12;;;;;;;;;;;20.20;72.00;;;;;;5075799;28;1248;-66
2022/10/27 01:51:38;;;;;;;;;;;20.20;72.00;;;;;;5076495;28;964;-67
2022/10/27 01:54:03;;;;;;;;;;;20.20;71.90;;;;;;5093787;28;905;-67
2022/10/27 01:56:47;;;;;;;;;;;20.20;72.00;;;;;;5095282;28;859;-67
2022/10/27 01:59:13;;;;;;;;;;;20.20;72.00;;;;;;5093905;28;1350;-67
2022/10/27 02:01:57;;;;;;;;;;;20.20;72.00;;;;;;5093248;28;942;-67
2022/10/27 02:04:34;;;;;;;;;;;20.20;72.00;;;;;;5091643;28;910;-66
2022/10/27 02:07:18;;;;;;;;;;;20.20;72.00;;;;;;5093626;28;1902;-66
2022/10/27 02:09:59;;;;;;;;;;;20.20;71.90;;;;;;5094262;28;820;-66
2022/10/27 02:12:26;;;;;;;;;;;20.20;72.00;;;;;;5074796;28;1321;-66
2022/10/27 02:14:51;;;;;;;;;;;20.20;71.90;;;;;;5073995;28;1010;-66
2022/10/27 02:17:16;;;;;;;;;;;20.20;72.00;;;;;;5074394;28;1353;-66
2022/10/27 02:19:42;;;;;;;;;;;20.20;72.00;;;;;;5094399;28;773;-66
2022/10/27 02:22:07;;;;;;;;;;;20.20;72.00;;;;;;5070252;28;853;-66
2022/10/27 02:24:33;;;;;;;;;;;20.20;72.00;;;;;;5075183;28;876;-65
2022/10/27 02:27:00;;;;;;;;;;;20.20;72.00;;;;;;5092748;28;1890;-65
2022/10/27 02:29:36;;;;;;;;;;;20.20;72.00;;;;;;5091965;28;1361;-65
2022/10/27 02:32:03;;;;;;;;;;;20.20;72.00;;;;;;5076132;28;1446;-65
2022/10/27 02:34:28;;;;;;;;;;;20.20;72.00;;;;;;5072754;28;962;-65
2022/10/27 02:36:54;;;;;;;;;;;20.20;72.00;;;;;;5079443;28;1277;-66
2022/10/27 02:39:19;;;;;;;;;;;20.20;72.00;;;;;;5091718;28;1365;-67
2022/10/27 02:41:44;;;;;;;;;;;20.20;72.00;;;;;;5092148;28;1671;-66
2022/10/27 02:44:10;;;;;;;;;;;20.20;72.00;;;;;;5090780;28;867;-67
2022/10/27 02:46:35;;;;;;;;;;;20.20;72.00;;;;;;5093570;28;1902;-67
2022/10/27 02:49:01;;;;;;;;;;;20.20;72.00;;;;;;5091179;28;1266;-67
2022/10/27 02:51:26;;;;;;;;;;;20.20;72.00;;;;;;5092667;28;873;-67
2022/10/27 02:53:52;;;;;;;;;;;20.20;72.00;;;;;;5092762;28;1345;-67
2022/10/27 02:56:17;;;;;;;;;;;20.20;72.00;;;;;;5092387;28;927;-67
2022/10/27 02:58:43;;;;;;;;;;;20.20;72.00;;;;;;5095826;28;1247;-66
2022/10/27 03:01:08;;;;;;;;;;;20.20;72.00;;;;;;5095695;28;970;-67
2022/10/27 03:03:33;;;;;;;;;;;20.20;72.00;;;;;;5057250;28;1083;-66
2022/10/27 03:05:59;;;;;;;;;;;20.20;72.00;;;;;;5092062;28;1917;-66
2022/10/27 03:08:24;;;;;;;;;;;20.20;72.00;;;;;;5093433;28;1330;-66
2022/10/27 03:10:50;;;;;;;;;;;20.20;72.00;;;;;;5091046;28;1046;-66
2022/10/27 03:13:15;;;;;;;;;;;20.20;72.00;;;;;;5090784;28;1395;-66
2022/10/27 03:15:42;;;;;;;;;;;20.20;72.00;;;;;;5091696;28;819;-66
2022/10/27 03:18:08;;;;;;;;;;;20.20;72.00;;;;;;5092385;28;1334;-66
2022/10/27 03:20:33;;;;;;;;;;;20.20;72.00;;;;;;5093618;28;1513;-66
2022/10/27 03:22:58;;;;;;;;;;;20.20;72.10;;;;;;5091288;28;897;-66
2022/10/27 03:25:24;;;;;;;;;;;20.20;72.00;;;;;;5074153;28;1901;-66
2022/10/27 03:27:49;;;;;;;;;;;20.20;72.00;;;;;;5091745;28;1262;-66
2022/10/27 03:30:15;;;;;;;;;;;20.20;72.00;;;;;;5054593;28;1209;-66
2022/10/27 03:32:45;;;;;;;;;;;20.20;72.00;;;;;;5071793;28;1394;-66
2022/10/27 03:35:10;;;;;;;;;;;20.20;72.00;;;;;;5071828;28;820;-66
2022/10/27 03:37:36;;;;;;;;;;;20.20;72.00;;;;;;5090384;28;1250;-67
2022/10/27 03:40:01;;;;;;;;;;;20.20;72.00;;;;;;5091745;28;974;-67
2022/10/27 03:42:26;;;;;;;;;;;20.20;72.00;;;;;;5093913;28;882;-67
2022/10/27 03:44:52;;;;;;;;;;;20.20;72.00;;;;;;5093779;28;1909;-66
2022/10/27 03:47:17;;;;;;;;;;;20.20;72.00;;;;;;5092102;28;1270;-66
2022/10/27 03:49:43;;;;;;;;;;;20.20;72.00;;;;;;5090843;28;1265;-66
2022/10/27 03:52:08;;;;;;;;;;;20.20;72.00;;;;;;5092320;28;879;-66
2022/10/27 03:54:33;;;;;;;;;;;20.20;72.00;;;;;;5072748;28;879;-66
2022/10/27 03:56:59;;;;;;;;;;;20.20;72.00;;;;;;5092676;28;879;-67
2022/10/27 03:59:24;;;;;;;;;;;20.20;72.00;;;;;;5091865;28;1272;-66
2022/10/27 04:01:50;;;;;;;;;;;20.20;72.10;;;;;;5090941;28;945;-66
2022/10/27 04:04:15;;;;;;;;;;;20.20;72.00;;;;;;5090603;28;927;-66
2022/10/27 04:06:41;;;;;;;;;;;20.20;72.10;;;;;;5092663;28;1993;-66
2022/10/27 04:09:06;;;;;;;;;;;20.20;72.00;;;;;;5072520;28;1315;-66
2022/10/27 04:11:31;;;;;;;;;;;20.20;72.10;;;;;;5092325;28;1048;-67
2022/10/27 04:13:57;;;;;;;;;;;20.20;72.00;;;;;;5090496;28;860;-67
2022/10/27 04:16:22;;;;;;;;;;;20.20;72.00;;;;;;5090094;28;910;-67
2022/10/27 04:18:48;;;;;;;;;;;20.20;71.90;;;;;;5090118;28;1242;-67
2022/10/27 04:21:13;;;;;;;;;;;20.30;71.90;;;;;;5091287;28;896;-66
2022/10/27 04:23:39;;;;;;;;;;;20.30;71.90;;;;;;5089751;28;819;-66
2022/10/27 04:26:04;;;;;;;;;;;20.30;71.80;;;;;;5090151;28;1969;-66
2022/10/27 04:28:30;;;;;;;;;;;20.30;71.70;;;;;;5090415;28;1279;-66
2022/10/27 04:30:55;;;;;;;;;;;20.30;71.70;;;;;;5090902;28;858;-66
2022/10/27 04:33:21;;;;;;;;;;;20.40;71.60;;;;;;5091972;28;1402;-65
2022/10/27 04:35:46;;;;;;;;;;;20.40;71.50;;;;;;5091366;28;1189;-66
2022/10/27 04:38:11;;;;;;;;;;;20.40;71.40;;;;;;5091013;28;2196;-65
2022/10/27 04:40:37;;;;;;;;;;;20.50;71.30;;;;;;5093886;28;2197;-65
2022/10/27 04:43:02;;;;;;;;;;;20.40;71.20;;;;;;5096195;28;1287;-65
2022/10/27 04:45:28;;;;;;;;;;;20.40;71.90;;;;;;5075733;28;4126;-66
2022/10/27 04:47:53;;;;;;;;;;;20.50;71.10;;;;;;5052111;28;4520;-65
2022/10/27 04:50:19;;;;;;;;;;;20.40;71.00;;;;;;5094227;28;1029;-65
2022/10/27 04:52:57;;;;;;;;;;;20.50;71.00;;;;;;5094290;28;946;-65
2022/10/27 04:55:23;;;;;;;;;;;20.50;70.90;;;;;;5093904;28;867;-65
2022/10/27 04:57:48;;;;;;;;;;;20.50;70.90;;;;;;5096470;28;1341;-65
2022/10/27 05:00:14;;;;;;;;;;;20.50;70.80;;;;;;5095849;28;926;-65
2022/10/27 05:02:39;;;;;;;;;;;20.50;70.80;;;;;;5085539;28;1519;-68
2022/10/27 05:05:05;;;;;;;;;;;20.60;70.80;;;;;;5067265;28;1910;-68
2022/10/27 05:07:30;;;;;;;;;;;20.50;70.70;;;;;;5091331;28;1258;-68
2022/10/27 05:09:55;;;;;;;;;;;20.60;70.80;;;;;;5079540;28;4380;-68
2022/10/27 05:12:21;;;;;;;;;;;20.60;70.70;;;;;;5080693;28;4483;-67
2022/10/27 05:14:46;;;;;;;;;;;20.60;70.70;;;;;;5087022;28;4583;-68
2022/10/27 05:17:12;;;;;;;;;;;20.60;70.60;;;;;;5093800;28;797;-67
2022/10/27 05:19:37;;;;;;;;;;;20.60;70.60;;;;;;5092469;28;1208;-67
2022/10/27 05:22:03;;;;;;;;;;;20.60;70.60;;;;;;5097184;28;867;-67
2022/10/27 05:24:28;;;;;;;;;;;20.60;70.50;;;;;;5092533;28;1223;-67
2022/10/27 05:26:53;;;;;;;;;;;20.60;70.40;;;;;;5093793;28;1914;-67
2022/10/27 05:29:19;;;;;;;;;;;20.60;70.40;;;;;;5096144;28;1264;-67
2022/10/27 05:31:44;;;;;;;;;;;20.60;70.50;;;;;;5095597;28;1423;-67
2022/10/27 05:34:10;;;;;;;;;;;20.70;70.70;;;;;;5093000;28;929;-66
2022/10/27 05:36:35;;;;;;;;;;;20.70;70.70;;;;;;5095333;28;919;-66
2022/10/27 05:39:01;;;;;;;;;;;20.80;70.40;;;;;;5092377;28;1337;-67
2022/10/27 05:41:26;;;;;;;;;;;20.80;70.20;;;;;;5094635;28;887;-67
2022/10/27 05:43:51;;;;;;;;;;;20.90;70.10;;;;;;5092471;28;854;-67
2022/10/27 05:46:17;;;;;;;;;;;21.00;70.00;;;;;;5092886;28;1913;-67
2022/10/27 05:48:42;;;;;;;;;;;21.10;69.80;;;;;;5092831;28;1370;-67
2022/10/27 05:51:08;;;;;;;;;;;21.20;69.60;;;;;;5091757;28;1178;-67
2022/10/27 05:53:33;;;;;;;;;;;21.30;70.20;;;;;;5077208;28;1018;-66
2022/10/27 05:55:59;;;;;;;;;;;21.30;69.10;;;;;;5093330;28;855;-66
2022/10/27 05:58:24;;;;;;;;;;;21.40;68.90;;;;;;5095213;28;1224;-67
2022/10/27 06:00:49;;;;;;;;;;;21.50;68.60;;;;;;5093716;28;875;-66
2022/10/27 06:03:17;;;;;;;;;;;21.60;68.40;;;;;;5093243;28;971;-67
2022/10/27 06:05:43;;;;;;;;;;;21.60;68.10;;;;;;5072458;28;1906;-67
2022/10/27 06:08:08;;;;;;;;;;;21.70;67.90;;;;;;5093450;28;1338;-67
2022/10/27 06:10:34;;;;;;;;;;;21.70;67.70;;;;;;5093019;28;943;-67
2022/10/27 06:13:02;;;;;;;;;;;21.80;67.50;;;;;;5092518;28;1008;-67
2022/10/27 06:15:28;;;;;;;;;;;21.80;67.30;;;;;;5073998;28;946;-67
2022/10/27 06:17:53;;;;;;;;;;;21.90;67.20;;;;;;5091728;28;1341;-67
2022/10/27 06:20:19;;;;;;;;;;;21.90;67.10;;;;;;5091889;28;903;-67
2022/10/27 06:22:45;;;;;;;;;;;22.00;67.00;;;;;;5091483;28;891;-66
2022/10/27 06:25:10;;;;;;;;;;;22.00;66.90;;;;;;5091447;28;1963;-67
2022/10/27 06:27:36;;;;;;;;;;;22.00;66.80;;;;;;5095682;28;1228;-67
2022/10/27 06:30:01;;;;;;;;;;;22.00;66.80;;;;;;5093637;28;919;-67
2022/10/27 06:32:26;;;;;;;;;;;22.00;66.80;;;;;;5093100;28;1432;-67
2022/10/27 06:34:52;;;;;;;;;;;22.00;66.80;;;;;;5091081;28;990;-67
2022/10/27 06:37:17;;;;;;;;;;;22.00;66.70;;;;;;5093122;28;1366;-67
2022/10/27 06:39:43;;;;;;;;;;;22.00;66.70;;;;;;5092611;28;943;-68
2022/10/27 06:42:08;;;;;;;;;;;22.00;66.70;;;;;;5097221;28;873;-67
2022/10/27 06:44:34;;;;;;;;;;;22.10;66.70;;;;;;5078412;28;911;-67
2022/10/27 06:46:59;;;;;;;;;;;22.10;66.70;;;;;;5092860;28;1894;-67
2022/10/27 06:49:24;;;;;;;;;;;22.10;66.70;;;;;;5090724;28;1326;-66
2022/10/27 06:51:50;;;;;;;;;;;22.00;66.60;;;;;;5094533;28;1026;-67
2022/10/27 06:54:15;;;;;;;;;;;22.00;66.50;;;;;;5095061;28;1010;-66
2022/10/27 06:56:41;;;;;;;;;;;22.00;66.60;;;;;;5092424;28;800;-68
2022/10/27 06:59:06;;;;;;;;;;;22.00;66.70;;;;;;5092568;28;1319;-66
2022/10/27 07:01:32;;;;;;;;;;;22.00;66.70;;;;;;5091610;28;934;-66
2022/10/27 07:03:57;;;;;;;;;;;22.00;66.80;;;;;;5090406;28;912;-66
2022/10/27 07:06:23;;;;;;;;;;;22.00;66.80;;;;;;5091901;28;1918;-66
2022/10/27 07:08:51;;;;;;;;;;;22.00;66.80;;;;;;5074605;28;1357;-66
2022/10/27 07:11:17;;;;;;;;;;;21.90;66.70;;;;;;5075165;28;963;-67
2022/10/27 07:13:42;;;;;;;;;;;22.00;66.90;;;;;;5090718;28;1345;-66
2022/10/27 07:16:09;;;;;;;;;;;21.90;66.80;;;;;;5092239;28;879;-66
2022/10/27 07:18:37;;;;;;;;;;;21.90;66.90;;;;;;5072573;28;1288;-66
2022/10/27 07:21:02;;;;;;;;;;;21.90;67.00;;;;;;5093068;28;1263;-67
2022/10/27 07:23:28;;;;;;;;;;;21.90;67.00;;;;;;5092694;28;982;-67
2022/10/27 07:25:53;;;;;;;;;;;21.90;67.10;;;;;;5093359;28;1903;-67
2022/10/27 07:28:18;;;;;;;;;;;21.90;67.20;;;;;;5097146;28;1944;-67
2022/10/27 07:30:46;;;;;;;;;;;21.90;67.20;;;;;;5094127;28;2139;-67
2022/10/27 07:33:11;;;;;;;;;;;21.90;67.30;;;;;;5088951;28;1353;-67
2022/10/27 07:35:37;;;;;;;;;;;21.80;67.20;;;;;;5091221;28;1262;-67
2022/10/27 07:38:02;;;;;;;;;;;21.90;67.30;;;;;;5092656;28;1345;-67
2022/10/27 07:40:28;;;;;;;;;;;21.90;67.30;;;;;;5073418;28;1073;-66
2022/10/27 07:42:55;;;;;;;;;;;21.90;67.30;;;;;;5089940;28;1263;-68
2022/10/27 07:45:21;;;;;;;;;;;21.90;67.30;;;;;;5072414;28;1905;-68
2022/10/27 07:47:50;;;;;;;;;;;21.90;67.30;;;;;;5091897;28;1281;-68
2022/10/27 07:50:16;;;;;;;;;;;21.90;67.30;;;;;;5055050;28;1354;-68
2022/10/27 07:52:45;;;;;;;;;;;22.00;67.30;;;;;;5092649;28;912;-67
2022/10/27 07:55:10;;;;;;;;;;;22.00;67.20;;;;;;5092646;28;1072;-68
2022/10/27 07:57:36;;;;;;;;;;;22.00;67.10;;;;;;5074010;28;1239;-68
2022/10/27 08:00:03;;;;;;;;;;;22.00;67.20;;;;;;5074887;28;1435;-67
2022/10/27 08:02:28;;;;;;;;;;;22.00;67.10;;;;;;5091983;28;2033;-66
2022/10/27 08:04:56;;;;;;;;;;;22.00;67.00;;;;;;5091161;28;1971;-66
2022/10/27 08:07:21;;;;;;;;;;;22.00;67.00;;;;;;5090799;28;1264;-66
2022/10/27 08:09:47;;;;;;;;;;;22.00;67.00;;;;;;5091305;28;1017;-67
2022/10/27 08:12:12;;;;;;;;;;;22.00;67.00;;;;;;5092892;28;1445;-67
2022/10/27 08:14:38;;;;;;;;;;;22.00;67.00;;;;;;5096824;28;879;-66
2022/10/27 08:17:03;;;;;;;;;;;22.00;66.90;;;;;;5078011;28;880;-66
2022/10/27 08:19:29;;;;;;;;;;;22.00;66.90;;;;;;5094114;28;1182;-66
2022/10/27 08:21:54;;;;;;;;;;;22.00;67.00;;;;;;5094875;28;1042;-67
2022/10/27 08:24:19;;;;;;;;;;;22.00;67.00;;;;;;5074684;28;1454;-66
2022/10/27 08:26:45;;;;;;;;;;;22.00;67.10;;;;;;5090789;28;1898;-66
2022/10/27 08:29:10;;;;;;;;;;;22.00;67.10;;;;;;5093155;28;1421;-66
2022/10/27 08:31:36;;;;;;;;;;;21.90;67.10;;;;;;5093072;28;1313;-67
2022/10/27 08:34:01;;;;;;;;;;;21.90;67.20;;;;;;5092664;28;1402;-66
2022/10/27 08:36:27;;;;;;;;;;;21.90;67.30;;;;;;5088207;28;1652;-66
2022/10/27 08:38:52;;;;;;;;;;;21.90;67.30;;;;;;5094949;28;1511;-67
2022/10/27 08:41:24;;;;;;;;;;;21.80;67.40;;;;;;5094647;28;1455;-66
2022/10/27 08:44:02;;;;;;;;;;;21.80;67.40;;;;;;5077340;28;1464;-67
2022/10/27 08:46:30;;;;;;;;;;;21.80;67.50;;;;;;5092534;28;1965;-67
2022/10/27 08:49:00;;;;;;;;;;;21.80;67.60;;;;;;5092290;28;1348;-67
2022/10/27 08:51:25;;;;;;;;;;;21.80;67.70;;;;;;5073218;28;1601;-66
2022/10/27 08:53:51;;;;;;;;;;;21.80;67.70;;;;;;5090111;28;1416;-67
2022/10/27 08:56:17;;;;;;;;;;;21.70;67.80;;;;;;5077387;28;1512;-67
2022/10/27 08:58:45;;;;;;;;;;;21.70;67.90;;;;;;5073304;28;1643;-66
2022/10/27 09:01:40;;;;;;;;;;;21.70;68.70;;;;;;5092246;28;1389;-66
2022/10/27 09:04:12;;;;;;;;;;;21.70;68.00;;;;;;5072683;28;1531;-66
2022/10/27 09:06:40;;;;;;;;;;;21.70;68.10;;;;;;5098838;28;1938;-66
2022/10/27 09:09:11;;;;;;;;;;;21.70;68.10;;;;;;5080807;28;1361;-66
2022/10/27 09:11:44;;;;;;;;;;;21.60;68.20;;;;;;5079963;28;1404;-66
2022/10/27 09:14:10;;;;;;;;;;;21.60;68.30;;;;;;5092697;28;1481;-66
2022/10/27 09:16:46;;;;;;;;;;;21.60;68.30;;;;;;5095586;28;879;-66
2022/10/27 09:19:14;;;;;;;;;;;21.60;68.40;;;;;;5074165;28;1253;-66
2022/10/27 09:21:40;;;;;;;;;;;21.60;68.40;;;;;;5077167;28;1022;-66
2022/10/27 09:24:12;;;;;;;;;;;21.60;68.50;;;;;;5079061;28;818;-66
2022/10/27 09:26:37;;;;;;;;;;;21.60;68.50;;;;;;5094335;28;1969;-67
2022/10/27 09:29:09;;;;;;;;;;;21.50;68.50;;;;;;5077957;28;1262;-67
2022/10/27 09:31:38;;;;;;;;;;;21.50;68.60;;;;;;5094094;28;1383;-66
2022/10/27 09:34:08;;;;;;;;;;;21.50;68.70;;;;;;5078415;28;851;-66
2022/10/27 09:36:33;;;;;;;;;;;21.50;68.70;;;;;;5074448;28;1340;-66
2022/10/27 09:38:59;;;;;;;;;;;21.50;68.80;;;;;;5093137;28;1353;-67
2022/10/27 09:41:24;;;;;;;;;;;21.50;68.90;;;;;;5093500;28;924;-66
2022/10/27 09:43:50;;;;;;;;;;;21.50;68.90;;;;;;5076302;28;1360;-67
2022/10/27 09:46:21;;;;;;;;;;;21.50;68.90;;;;;;5094420;28;1973;-66
2022/10/27 09:48:46;;;;;;;;;;;21.40;68.90;;;;;;5074374;28;1353;-66
2022/10/27 09:51:20;;;;;;;;;;;21.40;69.00;;;;;;5076433;28;1051;-66
2022/10/27 09:53:50;;;;;;;;;;;21.40;69.00;;;;;;5081089;28;904;-68
2022/10/27 09:56:23;;;;;;;;;;;21.40;69.10;;;;;;5078370;28;1399;-66
2022/10/27 09:58:50;;;;;;;;;;;21.40;69.20;;;;;;5075178;28;1452;-66
2022/10/27 10:01:16;;;;;;;;;;;21.40;69.30;;;;;;5093929;28;904;-66
2022/10/27 10:03:51;;;;;;;;;;;21.30;69.20;;;;;;5074069;28;892;-67
2022/10/27 10:06:23;;;;;;;;;;;21.30;69.30;;;;;;5095617;28;1973;-66
2022/10/27 10:08:48;;;;;;;;;;;21.30;69.40;;;;;;5075264;28;1378;-66
2022/10/27 10:11:17;;;;;;;;;;;21.30;69.40;;;;;;5095241;28;1265;-66
2022/10/27 10:13:55;;;;;;;;;;;21.30;69.40;;;;;;5092706;28;1253;-66
2022/10/27 10:16:20;;;;;;;;;;;21.30;69.50;;;;;;5092616;28;850;-66
2022/10/27 10:18:55;;;;;;;;;;;21.30;69.50;;;;;;5091573;28;1258;-66
2022/10/27 10:21:20;;;;;;;;;;;21.30;69.50;;;;;;5075526;28;1022;-66
2022/10/27 10:23:48;;;;;;;;;;;21.20;69.50;;;;;;5075158;28;1401;-66
2022/10/27 10:26:27;;;;;;;;;;;21.20;69.50;;;;;;5075750;28;1886;-66
2022/10/27 10:29:03;;;;;;;;;;;21.20;69.60;;;;;;5075205;28;1290;-66
2022/10/27 10:31:28;;;;;;;;;;;21.20;69.70;;;;;;5080099;28;1482;-67
2022/10/27 10:33:56;;;;;;;;;;;21.20;69.70;;;;;;5091173;28;864;-67
2022/10/27 10:36:21;;;;;;;;;;;21.20;69.70;;;;;;5073600;28;1077;-66
2022/10/27 10:38:50;;;;;;;;;;;21.20;69.80;;;;;;5093299;28;1251;-66
2022/10/27 10:41:16;;;;;;;;;;;21.20;69.90;;;;;;5076198;28;921;-66
2022/10/27 10:43:41;;;;;;;;;;;21.20;69.90;;;;;;5073661;28;1018;-66
2022/10/27 10:46:15;;;;;;;;;;;21.10;69.90;;;;;;5092016;28;1893;-66
2022/10/27 10:48:45;;;;;;;;;;;21.10;70.00;;;;;;5093334;28;1510;-66
2022/10/27 10:51:10;;;;;;;;;;;21.10;70.00;;;;;;5073460;28;1453;-67
2022/10/27 10:53:38;;;;;;;;;;;21.10;70.10;;;;;;5079567;28;1431;-67
2022/10/27 10:56:04;;;;;;;;;;;21.10;70.10;;;;;;5081633;28;1711;-67
2022/10/27 10:58:31;;;;;;;;;;;21.10;70.10;;;;;;5092602;28;1401;-67
2022/10/27 11:00:57;;;;;;;;;;;21.10;70.20;;;;;;5080914;28;1450;-66
2022/10/27 11:03:23;;;;;;;;;;;21.10;70.30;;;;;;5076943;28;1638;-66
2022/10/27 11:06:11;;;;;;;;;;;21.10;70.20;;;;;;5096626;28;1981;-66
2022/10/27 11:08:37;;;;;;;;;;;21.00;70.20;;;;;;5096952;28;1432;-66
2022/10/27 11:11:03;;;;;;;;;;;21.10;70.30;;;;;;5091115;28;1490;-66
2022/10/27 11:13:33;;;;;;;;;;;21.00;70.30;;;;;;5073375;28;1335;-67
2022/10/27 11:15:59;;;;;;;;;;;21.00;70.40;;;;;;5078952;28;1021;-66
2022/10/27 11:18:29;;;;;;;;;;;21.00;70.40;;;;;;5091527;28;1347;-67
2022/10/27 11:20:55;;;;;;;;;;;21.00;70.40;;;;;;5073945;28;836;-66
2022/10/27 11:23:39;;;;;;;;;;;21.00;70.40;;;;;;5076885;28;855;-66
2022/10/27 11:26:04;;;;;;;;;;;21.00;70.40;;;;;;5077386;28;1968;-66
2022/10/27 11:28:32;;;;;;;;;;;21.00;70.50;;;;;;5073932;28;1528;-66
2022/10/27 11:31:06;;;;;;;;;;;21.00;70.50;;;;;;5074908;28;1743;-66
2022/10/27 11:33:36;;;;;;;;;;;21.00;70.50;;;;;;5091010;28;1618;-66
2022/10/27 11:36:05;;;;;;;;;;;21.00;70.60;;;;;;5078319;28;1324;-67
2022/10/27 11:38:56;;;;;;;;;;;20.90;70.50;;;;;;5091423;28;1459;-66
2022/10/27 11:41:25;;;;;;;;;;;20.90;70.60;;;;;;5092877;28;1241;-66
2022/10/27 11:44:02;;;;;;;;;;;20.90;70.60;;;;;;5088734;28;1540;-67
2022/10/27 11:46:33;;;;;;;;;;;20.90;70.60;;;;;;5091472;28;1902;-67
2022/10/27 11:49:07;;;;;;;;;;;20.90;70.60;;;;;;5091732;28;1523;-66
2022/10/27 11:51:38;;;;;;;;;;;20.90;70.70;;;;;;5075471;28;1419;-66
2022/10/27 11:54:03;;;;;;;;;;;20.90;70.70;;;;;;5095496;28;1102;-67
2022/10/27 11:56:41;;;;;;;;;;;20.90;70.70;;;;;;5078314;28;1244;-67
2022/10/27 11:59:15;;;;;;;;;;;20.90;70.70;;;;;;5096664;28;1856;-66
2022/10/27 12:01:56;;;;;;;;;;;20.90;70.70;;;;;;5094915;28;1590;-67
2022/10/27 12:04:24;;;;;;;;;;;20.90;70.80;;;;;;5073743;28;1675;-67
2022/10/27 12:06:55;;;;;;;;;;;20.90;70.80;;;;;;5091983;28;2050;-67
2022/10/27 12:09:23;;;;;;;;;;;20.90;70.80;;;;;;5076372;28;1460;-66
2022/10/27 12:11:49;;;;;;;;;;;20.80;70.80;;;;;;5093552;28;1478;-67
2022/10/27 12:14:23;;;;;;;;;;;20.80;70.80;;;;;;5074164;28;1345;-68
2022/10/27 12:16:59;;;;;;;;;;;20.80;70.90;;;;;;5075041;28;1550;-68
2022/10/27 12:19:29;;;;;;;;;;;20.80;70.90;;;;;;5091513;28;1367;-66
2022/10/27 12:22:06;;;;;;;;;;;20.80;71.00;;;;;;5090332;28;1478;-67
2022/10/27 12:24:42;;;;;;;;;;;20.80;70.90;;;;;;5088615;28;1928;-66
2022/10/27 12:27:15;;;;;;;;;;;20.80;71.00;;;;;;5092864;28;1906;-66
2022/10/27 12:29:42;;;;;;;;;;;20.80;71.00;;;;;;5072264;28;1410;-66
2022/10/27 12:32:12;;;;;;;;;;;20.80;71.00;;;;;;5073638;28;1444;-66
2022/10/27 12:34:45;;;;;;;;;;;20.80;71.00;;;;;;5072910;28;1583;-67
2022/10/27 12:37:32;;;;;;;;;;;20.80;71.10;;;;;;5072502;28;1486;-66
2022/10/27 12:40:03;;;;;;;;;;;20.80;71.80;;;;;;5072677;28;2253;-66
2022/10/27 12:42:35;;;;;;;;;;;20.80;71.10;;;;;;5072431;28;1651;-66
2022/10/27 12:45:07;;;;;;;;;;;20.80;71.10;;;;;;5076242;28;1431;-66
2022/10/27 12:47:38;;;;;;;;;;;20.80;71.10;;;;;;5093154;28;1311;-66
2022/10/27 12:50:06;;;;;;;;;;;20.80;71.20;;;;;;5076919;28;1335;-66
2022/10/27 12:52:36;;;;;;;;;;;20.80;71.20;;;;;;5094039;28;835;-67
2022/10/27 12:55:14;;;;;;;;;;;20.80;71.20;;;;;;5090554;28;994;-67
2022/10/27 12:57:43;;;;;;;;;;;20.80;71.20;;;;;;5072691;28;1374;-67
2022/10/27 13:00:11;;;;;;;;;;;20.80;71.30;;;;;;5096760;28;1456;-67
2022/10/27 13:02:39;;;;;;;;;;;20.80;71.20;;;;;;5075905;28;1389;-66
2022/10/27 13:05:24;;;;;;;;;;;20.80;71.30;;;;;;5074851;28;900;-66
2022/10/27 13:08:12;;;;;;;;;;;20.80;71.30;;;;;;5093023;28;1365;-66
2022/10/27 13:10:41;;;;;;;;;;;20.70;71.20;;;;;;5084900;28;1106;-66
2022/10/27 13:13:10;;;;;;;;;;;20.70;71.30;;;;;;5078308;28;1373;-66
2022/10/27 13:15:47;;;;;;;;;;;20.80;71.30;;;;;;5092771;28;1314;-67
2022/10/27 13:18:39;;;;;;;;;;;20.70;71.30;;;;;;5073343;28;1958;-67
2022/10/27 13:21:06;;;;;;;;;;;20.70;71.30;;;;;;5093506;28;1421;-66
2022/10/27 13:24:01;;;;;;;;;;;20.70;71.30;;;;;;5080850;28;1061;-67
2022/10/27 13:26:40;;;;;;;;;;;20.70;71.30;;;;;;5076445;28;1969;-67
2022/10/27 13:29:11;;;;;;;;;;;20.70;71.40;;;;;;5077028;28;1267;-67
2022/10/27 13:31:39;;;;;;;;;;;20.70;71.40;;;;;;5094767;28;1430;-67
2022/10/27 13:34:08;;;;;;;;;;;20.70;71.40;;;;;;5092465;28;897;-66
2022/10/27 13:36:33;;;;;;;;;;;20.70;71.40;;;;;;5093446;28;946;-67
2022/10/27 13:39:14;;;;;;;;;;;20.70;71.50;;;;;;5094918;28;1411;-67
2022/10/27 13:41:56;;;;;;;;;;;20.70;71.50;;;;;;5098543;28;816;-68
2022/10/27 13:44:27;;;;;;;;;;;20.70;71.50;;;;;;5076729;28;1181;-67
2022/10/27 13:47:02;;;;;;;;;;;20.70;71.50;;;;;;5095879;28;1894;-67
2022/10/27 13:49:48;;;;;;;;;;;20.70;71.50;;;;;;5092365;28;1254;-67
2022/10/27 13:52:13;;;;;;;;;;;20.70;71.50;;;;;;5093845;28;1371;-67
2022/10/27 13:54:55;;;;;;;;;;;20.70;71.60;;;;;;5093117;28;1433;-67
2022/10/27 13:57:30;;;;;;;;;;;20.60;71.50;;;;;;5074143;28;1331;-67
2022/10/27 13:59:57;;;;;;;;;;;20.60;71.50;;;;;;5075308;28;1142;-67
2022/10/27 14:02:25;;;;;;;;;;;20.70;71.60;;;;;;5075895;28;1376;-67
2022/10/27 14:04:52;;;;;;;;;;;20.60;71.50;;;;;;5076438;28;1014;-67
2022/10/27 14:07:17;;;;;;;;;;;20.70;71.60;;;;;;5086438;28;1959;-67
2022/10/27 14:09:49;;;;;;;;;;;20.70;71.60;;;;;;5092355;28;1424;-67
2022/10/27 14:12:15;;;;;;;;;;;20.60;71.60;;;;;;5072856;28;1411;-68
2022/10/27 14:14:40;;;;;;;;;;;20.60;71.60;;;;;;5072426;28;1624;-68
2022/10/27 14:17:13;;;;;;;;;;;20.70;71.70;;;;;;5093378;28;1452;-67
2022/10/27 14:19:40;;;;;;;;;;;20.60;71.60;;;;;;5072840;28;1362;-69
2022/10/27 14:22:05;;;;;;;;;;;20.60;71.60;;;;;;5075886;28;1349;-67
2022/10/27 14:24:37;;;;;;;;;;;20.60;71.60;;;;;;5092878;28;1282;-66
2022/10/27 14:27:03;;;;;;;;;;;20.60;71.60;;;;;;5093495;28;1963;-66
2022/10/27 14:29:28;;;;;;;;;;;20.60;71.70;;;;;;5091817;28;1426;-66
2022/10/27 14:32:13;;;;;;;;;;;20.60;71.60;;;;;;5091585;28;1478;-66
2022/10/27 14:34:38;;;;;;;;;;;20.60;71.70;;;;;;5070812;28;1328;-69
2022/10/27 14:37:03;;;;;;;;;;;20.60;71.70;;;;;;5090938;28;1339;-68
2022/10/27 14:39:33;;;;;;;;;;;20.60;71.70;;;;;;5077424;28;1445;-67